CKS3 weather

Cudworth Airport
Cudworth, Saskatchewan, Canada

Public forecast

Using degrees Celsius for public forecast. Weather courtesy of forecast.io.

Closest aviation weather report (METAR) to Cudworth Airport

Closest report is Saskatoon John G. Diefenbaker International Airport, 39.3 nm (72.7 km) WSW. Retrieved 2020/06/01 21:00 UTC (1 hour ago):

CYXE 012100Z 27017G34KT 15SM FEW040 BKN300 24/04 A2971 RMK SC1CI4 SLP063 DENSITY ALT 3300FT

Closest aviation forecast (TAF) to Cudworth Airport

Closest forecast is Saskatoon John G. Diefenbaker International Airport, 39.3 nm (72.7 km) WSW. Retrieved 2020/06/01 18:39 UTC (3 hours ago):

TAF CYXE 011738Z 0118/0218 28028G38KT P6SM FEW040 BECMG 0119/0121 28022G32KT BECMG 0202/0204 29010KT FM020400 29010KT P6SM SCT220 FM020800 29010KT P6SM BKN060 BKN140 FM021300 28015G25KT P6SM FEW090 RMK NXT FCST BY 020000Z